Time,TemperatureF,DewpointF,PressureIn,WindDirection,WindDirectionDegrees,WindSpeedMPH,WindSpeedGustMPH,Humidity,HourlyPrecipIn,Conditions,Clouds,dailyrainin,SolarRadiationWatts/m^2,SoftwareType,DateUTC
2013-07-24 00:00:00,64.0,48.0,-100.00,NE,54,3.0,5.0,57,0.00,,,-99.99,0.000000,,2013-07-24 07:00:00,
2013-07-24 00:32:00,64.0,48.0,-100.00,NE,54,3.0,5.0,57,0.00,,,-99.99,0.000000,,2013-07-24 07:32:00,
2013-07-24 00:43:00,64.0,48.0,-100.00,NE,54,3.0,5.0,57,0.00,,,-99.99,0.000000,,2013-07-24 07:43:00,
2013-07-24 00:53:00,64.0,48.0,-100.00,NE,54,3.0,5.0,57,0.00,,,-99.99,0.000000,,2013-07-24 07:53:00,
2013-07-24 01:00:00,67.0,50.0,-100.00,NNE,24,2.0,4.0,54,0.00,,,0.00,0.000000,,2013-07-24 08:00:00,
2013-07-24 01:32:00,67.0,50.0,-100.00,NNE,24,2.0,4.0,54,0.00,,,0.00,0.000000,,2013-07-24 08:32:00,
2013-07-24 01:43:00,67.0,50.0,-100.00,NNE,24,2.0,4.0,54,0.00,,,0.00,0.000000,,2013-07-24 08:43:00,
2013-07-24 01:52:00,67.0,50.0,-100.00,NNE,24,2.0,4.0,54,0.00,,,0.00,0.000000,,2013-07-24 08:52:00,
2013-07-24 02:00:00,65.0,48.0,-100.00,NE,45,2.0,5.0,55,0.00,,,0.00,0.000000,,2013-07-24 09:00:00,
2013-07-24 02:32:00,65.0,48.0,-100.00,NE,45,2.0,5.0,55,0.00,,,0.00,0.000000,,2013-07-24 09:32:00,
2013-07-24 02:43:00,65.0,48.0,-100.00,NE,45,2.0,5.0,55,0.00,,,0.00,0.000000,,2013-07-24 09:43:00,
2013-07-24 02:53:00,65.0,48.0,-100.00,NE,45,2.0,5.0,55,0.00,,,0.00,0.000000,,2013-07-24 09:53:00,
2013-07-24 03:00:00,64.0,49.0,-100.00,NNE,18,2.0,3.0,59,0.00,,,0.00,0.000000,,2013-07-24 10:00:00,
2013-07-24 03:33:00,64.0,49.0,-100.00,NNE,18,2.0,3.0,59,0.00,,,0.00,0.000000,,2013-07-24 10:33:00,
2013-07-24 03:43:00,64.0,49.0,-100.00,NNE,18,2.0,3.0,59,0.00,,,0.00,0.000000,,2013-07-24 10:43:00,
2013-07-24 03:53:00,64.0,49.0,-100.00,NNE,18,2.0,3.0,59,0.00,,,0.00,0.000000,,2013-07-24 10:53:00,
2013-07-24 04:00:00,64.0,49.0,-100.00,NNE,17,3.0,5.0,59,0.00,,,0.00,0.000000,,2013-07-24 11:00:00,
2013-07-24 04:32:00,64.0,49.0,-100.00,NNE,17,3.0,5.0,59,0.00,,,0.00,0.000000,,2013-07-24 11:32:00,
2013-07-24 04:44:00,64.0,49.0,-100.00,NNE,17,3.0,5.0,59,0.00,,,0.00,0.000000,,2013-07-24 11:44:00,
2013-07-24 04:52:00,64.0,49.0,-100.00,NNE,17,3.0,5.0,59,0.00,,,0.00,0.000000,,2013-07-24 11:52:00,
2013-07-24 05:00:00,63.0,49.0,-100.00,North,2,5.0,8.0,61,0.00,,,0.00,0.000000,,2013-07-24 12:00:00,
2013-07-24 05:32:00,63.0,49.0,-100.00,North,2,5.0,8.0,61,0.00,,,0.00,0.000000,,2013-07-24 12:32:00,
2013-07-24 05:42:00,63.0,49.0,-100.00,North,2,5.0,8.0,61,0.00,,,0.00,0.000000,,2013-07-24 12:42:00,
2013-07-24 05:52:00,63.0,49.0,-100.00,North,2,5.0,8.0,61,0.00,,,0.00,0.000000,,2013-07-24 12:52:00,
2013-07-24 06:00:00,63.0,50.0,-100.00,North,3,5.0,9.0,62,0.00,,,0.00,0.000000,,2013-07-24 13:00:00,
2013-07-24 06:32:00,63.0,50.0,-100.00,North,3,5.0,9.0,62,0.00,,,0.00,0.000000,,2013-07-24 13:32:00,
2013-07-24 06:43:00,63.0,50.0,-100.00,North,3,5.0,9.0,62,0.00,,,0.00,0.000000,,2013-07-24 13:43:00,
2013-07-24 06:53:00,63.0,50.0,-100.00,North,3,5.0,9.0,62,0.00,,,0.00,0.000000,,2013-07-24 13:53:00,
2013-07-24 07:00:00,68.0,52.0,-100.00,NNW,340,4.0,8.0,56,0.00,,,0.00,13.000000,,2013-07-24 14:00:00,
2013-07-24 07:32:00,68.0,52.0,-100.00,NNW,340,4.0,8.0,56,0.00,,,0.00,13.000000,,2013-07-24 14:32:00,
2013-07-24 07:43:00,68.0,52.0,-100.00,NNW,340,4.0,8.0,56,0.00,,,0.00,13.000000,,2013-07-24 14:43:00,
2013-07-24 07:55:00,68.0,52.0,-100.00,NNW,340,4.0,8.0,56,0.00,,,0.00,13.000000,,2013-07-24 14:55:00,
2013-07-24 08:00:00,74.0,51.0,-100.00,NNW,339,6.0,12.0,44,0.00,,,0.00,46.000000,,2013-07-24 15:00:00,
2013-07-24 08:33:00,74.0,51.0,-100.00,NNW,339,6.0,12.0,44,0.00,,,0.00,46.000000,,2013-07-24 15:33:00,
2013-07-24 08:43:00,74.0,51.0,-100.00,NNW,339,6.0,12.0,44,0.00,,,0.00,46.000000,,2013-07-24 15:43:00,
2013-07-24 08:53:00,74.0,51.0,-100.00,NNW,339,6.0,12.0,44,0.00,,,0.00,46.000000,,2013-07-24 15:53:00,
2013-07-24 09:00:00,79.0,50.0,-100.00,NNW,345,4.0,10.0,36,0.00,,,0.00,515.000000,,2013-07-24 16:00:00,
2013-07-24 09:23:00,79.0,50.0,-100.00,NNW,345,4.0,10.0,36,0.00,,,0.00,515.000000,,2013-07-24 16:23:00,
2013-07-24 09:33:00,79.0,50.0,-100.00,NNW,345,4.0,10.0,36,0.00,,,0.00,515.000000,,2013-07-24 16:33:00,
2013-07-24 09:43:00,79.0,50.0,-100.00,NNW,345,4.0,10.0,36,0.00,,,0.00,515.000000,,2013-07-24 16:43:00,
2013-07-24 09:53:00,79.0,50.0,-100.00,NNW,345,4.0,10.0,36,0.00,,,0.00,515.000000,,2013-07-24 16:53:00,
2013-07-24 10:00:00,81.0,49.0,-100.00,South,179,3.0,12.0,33,0.00,,,0.00,758.000000,,2013-07-24 17:00:00,
2013-07-24 10:22:00,81.0,49.0,-100.00,South,179,3.0,12.0,33,0.00,,,0.00,758.000000,,2013-07-24 17:22:00,
2013-07-24 10:33:00,81.0,49.0,-100.00,South,179,3.0,12.0,33,0.00,,,0.00,758.000000,,2013-07-24 17:33:00,
2013-07-24 10:43:00,81.0,49.0,-100.00,South,179,3.0,12.0,33,0.00,,,0.00,758.000000,,2013-07-24 17:43:00,
2013-07-24 10:53:00,81.0,49.0,-100.00,South,179,3.0,12.0,33,0.00,,,0.00,758.000000,,2013-07-24 17:53:00,
2013-07-24 11:00:00,85.0,50.0,-100.00,ENE,63,3.0,13.0,30,0.00,,,0.00,975.000000,,2013-07-24 18:00:00,
2013-07-24 11:33:00,85.0,50.0,-100.00,ENE,63,3.0,13.0,30,0.00,,,0.00,975.000000,,2013-07-24 18:33:00,
2013-07-24 11:43:00,85.0,50.0,-100.00,ENE,63,3.0,13.0,30,0.00,,,0.00,975.000000,,2013-07-24 18:43:00,
2013-07-24 11:52:00,85.0,50.0,-100.00,ENE,63,3.0,13.0,30,0.00,,,0.00,975.000000,,2013-07-24 18:52:00,
2013-07-24 13:00:00,80.0,46.0,-100.00,SW,221,6.0,14.0,30,-99.99,,,0.00,1306.000000,,2013-07-24 20:00:00,
2013-07-24 13:23:00,80.0,46.0,-100.00,SW,221,6.0,14.0,30,-99.99,,,0.00,1306.000000,,2013-07-24 20:23:00,
2013-07-24 13:33:00,80.0,46.0,-100.00,SW,221,6.0,14.0,30,-99.99,,,0.00,1306.000000,,2013-07-24 20:33:00,
2013-07-24 13:43:00,80.0,46.0,-100.00,SW,221,6.0,14.0,30,-99.99,,,0.00,1306.000000,,2013-07-24 20:43:00,
2013-07-24 13:53:00,80.0,46.0,-100.00,SW,221,6.0,14.0,30,-99.99,,,0.00,1306.000000,,2013-07-24 20:53:00,
2013-07-24 14:00:00,77.0,47.0,-100.00,West,268,5.0,13.0,35,0.00,,,0.00,697.000000,,2013-07-24 21:00:00,
2013-07-24 14:32:00,77.0,47.0,-100.00,West,268,5.0,13.0,35,0.00,,,0.00,697.000000,,2013-07-24 21:32:00,
2013-07-24 14:44:00,77.0,47.0,-100.00,West,268,5.0,13.0,35,0.00,,,0.00,697.000000,,2013-07-24 21:44:00,
2013-07-24 14:52:00,77.0,47.0,-100.00,West,268,5.0,13.0,35,0.00,,,0.00,697.000000,,2013-07-24 21:52:00,
2013-07-24 15:00:00,86.0,45.0,-100.00,West,273,4.0,10.0,24,0.00,,,0.00,345.000000,,2013-07-24 22:00:00,
2013-07-24 15:32:00,86.0,45.0,-100.00,West,273,4.0,10.0,24,0.00,,,0.00,345.000000,,2013-07-24 22:32:00,
2013-07-24 15:43:00,86.0,45.0,-100.00,West,273,4.0,10.0,24,0.00,,,0.00,345.000000,,2013-07-24 22:43:00,
2013-07-24 15:53:00,86.0,45.0,-100.00,West,273,4.0,10.0,24,0.00,,,0.00,345.000000,,2013-07-24 22:53:00,
2013-07-24 16:33:00,82.0,39.0,-100.00,NW,309,5.0,11.0,22,0.00,,,0.00,1042.000000,,2013-07-24 23:33:00,
2013-07-24 16:43:00,82.0,39.0,-100.00,NW,309,5.0,11.0,22,0.00,,,0.00,1042.000000,,2013-07-24 23:43:00,
2013-07-24 17:00:00,86.0,44.0,-100.00,West,265,8.0,17.0,23,0.00,,,-99.99,715.000000,,2013-07-25 00:00:00,
2013-07-24 17:33:00,86.0,44.0,-100.00,West,265,8.0,17.0,23,0.00,,,-99.99,715.000000,,2013-07-25 00:33:00,
2013-07-24 17:43:00,86.0,44.0,-100.00,West,265,8.0,17.0,23,0.00,,,-99.99,715.000000,,2013-07-25 00:43:00,
2013-07-24 17:53:00,86.0,44.0,-100.00,West,265,8.0,17.0,23,0.00,,,-99.99,715.000000,,2013-07-25 00:53:00,
2013-07-24 18:00:00,85.0,43.0,-100.00,West,269,8.0,15.0,23,0.00,,,0.00,701.000000,,2013-07-25 01:00:00,
2013-07-24 18:32:00,85.0,43.0,-100.00,West,269,8.0,15.0,23,0.00,,,0.00,701.000000,,2013-07-25 01:32:00,
2013-07-24 18:43:00,85.0,43.0,-100.00,West,269,8.0,15.0,23,0.00,,,0.00,701.000000,,2013-07-25 01:43:00,
2013-07-24 18:53:00,85.0,43.0,-100.00,West,269,8.0,15.0,23,0.00,,,0.00,701.000000,,2013-07-25 01:53:00,
2013-07-24 19:00:00,79.0,44.0,-100.00,West,278,8.0,19.0,29,0.00,,,0.00,486.000000,,2013-07-25 02:00:00,
2013-07-24 19:33:00,79.0,44.0,-100.00,West,278,8.0,19.0,29,0.00,,,0.00,486.000000,,2013-07-25 02:33:00,
2013-07-24 19:43:00,79.0,44.0,-100.00,West,278,8.0,19.0,29,0.00,,,0.00,486.000000,,2013-07-25 02:43:00,
2013-07-24 19:53:00,79.0,44.0,-100.00,West,278,8.0,19.0,29,0.00,,,0.00,486.000000,,2013-07-25 02:53:00,
2013-07-24 20:00:00,74.0,46.0,-100.00,North,3,4.0,15.0,37,0.00,,,0.00,167.000000,,2013-07-25 03:00:00,
2013-07-24 20:24:00,74.0,46.0,-100.00,North,3,4.0,15.0,37,0.00,,,0.00,167.000000,,2013-07-25 03:24:00,
2013-07-24 20:40:00,74.0,46.0,-100.00,North,3,4.0,15.0,37,0.00,,,0.00,167.000000,,2013-07-25 03:40:00,
2013-07-24 20:52:00,74.0,46.0,-100.00,North,3,4.0,15.0,37,0.00,,,0.00,167.000000,,2013-07-25 03:52:00,
2013-07-24 21:00:00,72.0,46.0,-100.00,North,5,4.0,7.0,40,0.00,,,0.00,15.000000,,2013-07-25 04:00:00,
2013-07-24 21:33:00,72.0,46.0,-100.00,North,5,4.0,7.0,40,0.00,,,0.00,15.000000,,2013-07-25 04:33:00,
2013-07-24 21:43:00,72.0,46.0,-100.00,North,5,4.0,7.0,40,0.00,,,0.00,15.000000,,2013-07-25 04:43:00,
2013-07-24 21:53:00,72.0,46.0,-100.00,North,5,4.0,7.0,40,0.00,,,0.00,15.000000,,2013-07-25 04:53:00,
2013-07-24 22:00:00,70.0,47.0,-100.00,NNE,16,5.0,9.0,44,0.00,,,0.00,0.000000,,2013-07-25 05:00:00,
2013-07-24 22:32:00,70.0,47.0,-100.00,NNE,16,5.0,9.0,44,0.00,,,0.00,0.000000,,2013-07-25 05:32:00,
2013-07-24 22:43:00,70.0,47.0,-100.00,NNE,16,5.0,9.0,44,0.00,,,0.00,0.000000,,2013-07-25 05:43:00,
2013-07-24 22:52:00,70.0,47.0,-100.00,NNE,16,5.0,9.0,44,0.00,,,0.00,0.000000,,2013-07-25 05:52:00,
2013-07-24 23:00:00,68.0,44.0,-100.00,North,9,6.0,11.0,42,0.00,,,0.00,0.000000,,2013-07-25 06:00:00,
2013-07-24 23:32:00,68.0,44.0,-100.00,North,9,6.0,11.0,42,0.00,,,0.00,0.000000,,2013-07-25 06:32:00,
2013-07-24 23:42:00,68.0,44.0,-100.00,North,9,6.0,11.0,42,0.00,,,0.00,0.000000,,2013-07-25 06:42:00,
2013-07-24 23:52:00,68.0,44.0,-100.00,North,9,6.0,11.0,42,0.00,,,0.00,0.000000,,2013-07-25 06:52:00,